Date,TemperatureHighF,TemperatureAvgF,TemperatureLowF,DewpointHighF,DewpointAvgF,DewpointLowF,HumidityHigh,HumidityAvg,HumidityLow,PressureMaxIn,PressureMinIn,WindSpeedMaxMPH,WindSpeedAvgMPH,GustSpeedMaxMPH,PrecipitationSumIn
2013-1-8,50,50,49,46,46,45,86,86,84,29.83,29.79,6,3,6,0.00
2013-1-9,50,41,34,45,38,32,96,90,79,29.87,29.60,12,2,12,0.20
2013-1-10,88,37,34,85,35,-17,98,94,10,29.98,29.86,49,1,49,0.06
2013-1-11,44,31,21,35,29,-19,98,91,10,30.17,29.98,24,0,24,0.02
2013-1-12,37,28,22,32,26,20,97,93,78,30.27,30.16,3,0,3,0.05
2013-1-13,29,27,26,27,26,24,97,95,93,30.36,30.26,0,0,0,0.00
2013-1-14,35,30,25,32,28,24,97,93,84,30.42,30.35,3,0,3,0.00
2013-1-15,38,36,32,36,34,31,97,93,91,30.52,30.40,12,0,12,0.00
2013-1-16,34,33,32,33,32,32,99,97,95,30.51,30.35,3,0,3,0.00
2013-1-17,55,32,27,38,31,-21,99,96,10,30.35,29.91,49,0,49,0.34
2013-1-18,33,30,26,32,29,26,99,98,97,30.19,30.14,2,0,2,0.00
2013-1-19,33,29,26,32,29,25,99,98,97,30.21,30.14,12,0,12,0.00
2013-1-20,36,29,27,35,29,27,99,98,94,30.22,30.11,2,0,2,0.00
2013-1-21,33,29,27,32,29,27,99,98,95,30.14,30.01,3,0,3,0.05
2013-1-22,47,32,27,38,30,26,99,94,68,30.03,29.81,4,0,4,0.00
2013-1-23,36,34,32,35,33,31,99,96,86,30.06,29.77,5,0,5,0.22
2013-1-24,82,36,30,81,36,29,99,99,97,30.08,29.98,3,0,3,0.00
2013-1-25,55,42,35,52,41,34,99,97,86,30.00,29.83,6,1,6,0.52
2013-1-26,48,41,37,44,39,36,99,95,80,29.95,29.81,8,2,8,0.31
2013-1-27,132,39,25,41,38,-24,99,96,10,30.02,29.91,8,1,8,0.20
2013-1-28,89,41,22,62,39,14,99,95,33,30.10,29.95,8,0,8,0.07
2013-1-29,47,44,43,45,43,41,98,94,91,30.35,30.10,8,1,8,0.02
2013-1-30,50,45,42,48,44,41,98,95,90,30.35,30.30,11,3,11,0.05
2013-1-31,95,49,27,92,44,-5,99,87,10,30.31,30.18,6,0,6,0.00
2013-2-1,64,46,40,48,42,-7,98,88,10,30.21,30.10,97,0,97,0.01
2013-2-2,54,40,31,45,38,-15,98,90,10,30.17,30.10,4,0,4,0.00
2013-2-3,47,44,32,45,42,14,98,94,88,30.19,30.08,4,0,4,0.00
2013-2-4,54,45,38,46,42,-13,99,89,71,30.09,29.81,12,0,12,0.43
2013-2-5,53,46,37,47,42,-15,96,88,10,29.92,29.78,100,4,100,0.15
2013-2-6,89,45,22,88,41,20,96,87,77,30.00,29.70,13,2,13,0.05
2013-2-7,49,40,33,41,37,32,97,89,68,30.21,30.00,8,2,8,0.09
2013-2-8,54,39,33,43,26,10,99,68,23,30.34,30.21,5,0,5,0.01
2013-2-9,45,40,34,17,14,10,37,34,30,30.37,30.32,4,0,4,0.07
2013-2-10,45,42,41,19,17,7,37,36,32,30.41,30.35,3,0,3,0.34
2013-2-11,46,43,39,42,28,14,91,62,27,30.46,30.38,3,0,3,0.00
2013-2-12,56,48,44,50,45,42,95,88,75,30.55,30.46,8,2,8,0.00
2013-2-13,54,48,45,48,44,41,93,84,68,30.58,30.50,48,1,48,0.00
2013-2-14,68,50,37,47,42,36,96,76,45,30.62,30.54,5,0,5,0.00
2013-2-15,70,48,40,48,43,39,97,83,42,30.54,30.28,8,0,8,0.00
2013-2-16,54,44,37,50,41,35,97,90,69,30.35,30.28,7,0,7,0.05
2013-2-17,49,41,35,41,35,32,95,82,59,30.36,30.15,4,0,4,0.00
2013-2-18,49,40,34,40,35,32,96,85,62,30.16,29.80,10,1,10,0.06
2013-2-19,62,44,35,44,38,34,97,82,41,30.06,29.73,6,0,6,0.01
2013-2-20,49,39,34,40,36,33,96,91,70,30.17,30.06,5,1,5,0.15
2013-2-21,44,41,36,41,39,35,97,93,84,30.28,30.17,11,3,11,0.06
2013-2-22,47,42,37,44,40,34,97,92,84,30.26,30.00,16,5,16,0.53
2013-2-23,53,40,34,45,36,32,96,89,63,30.51,30.16,8,1,8,0.35
2013-2-24,57,43,35,39,35,32,93,74,43,30.51,30.14,11,2,11,0.01
2013-2-25,55,43,36,42,38,34,95,82,48,30.42,29.92,15,2,15,0.18
2013-2-26,56,43,35,39,35,30,95,75,40,29.96,29.81,0,0,0,0.00
2013-2-27,51,46,42,45,41,37,92,80,68,29.87,29.78,9,0,9,0.01
2013-2-28,55,52,46,54,49,44,95,92,87,30.01,29.77,11,2,11,0.08
2013-3-1,52,52,51,51,50,50,95,94,93,30.02,30.00,9,0,9,0.00
2013-3-2,51,49,42,50,47,38,94,90,82,30.01,29.93,0,0,0,0.00
2013-3-3,60,44,26,40,33,-23,96,67,10,30.04,29.94,2,0,2,0.09
2013-3-4,65,44,30,38,34,29,96,71,33,29.95,29.65,0,0,0,0.01
2013-3-5,44,41,40,43,37,35,97,84,82,29.92,29.43,0,0,0,0.31
2013-3-6,47,42,40,46,41,38,98,95,88,30.18,29.76,10,2,10,0.34
2013-3-7,63,47,36,45,38,33,96,73,38,30.25,30.18,6,1,6,0.08
2013-3-8,66,46,33,42,37,32,97,73,36,30.42,30.23,5,0,5,0.00
2013-3-9,71,48,33,44,37,30,96,68,30,30.70,30.42,4,0,4,0.11
2013-3-10,55,47,36,43,38,30,87,73,61,30.70,30.62,9,0,9,0.00
2013-3-11,51,51,51,42,42,42,70,70,70,30.62,30.62,0,0,0,0.00
2013-3-12,58,54,0,51,46,42,78,72,70,30.62,29.91,4,0,5,0.96
2013-3-13,57,57,57,49,49,49,74,74,74,30.21,30.21,0,0,4,0.00
2013-3-14,59,53,48,48,46,42,90,77,55,30.22,30.06,5,1,5,0.00
2013-3-15,69,56,46,52,48,44,93,75,43,30.24,30.18,4,0,4,0.00
2013-3-16,51,46,39,46,43,38,96,90,81,30.19,30.04,8,2,8,0.28
2013-3-17,53,43,36,40,36,34,94,78,50,30.32,30.19,6,2,6,0.01
2013-3-18,59,44,31,40,34,30,96,72,40,30.29,30.14,3,0,3,0.00
2013-3-19,50,43,37,48,40,34,98,88,74,30.13,29.68,4,0,4,0.50
2013-3-20,54,45,39,51,40,34,98,81,69,30.19,29.57,8,1,8,0.44
2013-3-21,54,42,36,42,35,33,94,80,50,30.33,30.19,5,0,5,0.02
2013-3-22,58,41,32,37,33,31,96,76,40,30.39,30.31,0,0,0,0.02
2013-3-23,55,42,32,39,31,20,93,70,33,30.39,30.26,0,0,0,0.00
2013-3-24,62,45,35,39,34,29,88,68,38,30.26,30.08,4,0,4,0.01
2013-3-25,63,49,38,42,36,33,84,64,39,30.08,29.92,0,0,0,0.00
2013-3-26,54,48,43,47,44,38,93,85,73,30.03,29.97,0,0,0,0.02
2013-3-27,70,52,40,51,45,39,98,80,40,30.01,29.91,8,0,8,0.01
2013-3-28,74,56,46,53,48,44,97,78,38,30.15,30.00,4,0,4,0.01
2013-3-29,73,58,47,54,49,46,96,76,46,30.21,30.13,29,0,29,0.54
2013-3-30,93,61,44,61,47,35,96,65,29,30.18,29.96,4,0,4,0.09
2013-3-31,80,62,52,53,49,46,84,65,37,30.02,29.93,6,1,6,0.00
2013-4-1,68,57,51,53,50,47,91,77,56,30.19,30.02,8,1,8,0.00
2013-4-2,72,61,47,52,48,44,93,65,40,30.22,30.13,7,0,7,0.00
2013-4-3,101,54,43,96,48,41,96,82,53,30.17,29.91,12,1,12,0.00
2013-4-4,67,56,53,57,51,47,95,83,69,29.92,29.71,14,9,14,0.04
2013-4-5,58,53,49,53,49,-12,97,88,29,29.98,29.84,12,1,12,0.22
2013-4-6,71,51,13,70,48,-12,97,90,10,30.02,29.71,6,0,6,0.53
2013-4-7,51,47,36,49,43,-11,97,86,10,29.99,29.62,21,2,21,0.35
2013-4-8,61,46,38,47,39,-14,98,81,10,30.21,29.99,15,0,15,0.35
2013-4-9,58,53,33,46,42,-5,94,68,51,30.36,30.22,61,1,61,0.26
2013-4-10,52,51,50,46,44,8,84,80,18,30.25,30.22,0,0,0,0.00
2013-4-11,62,52,38,44,41,36,95,66,46,30.36,30.17,0,0,0,0.00
2013-4-12,55,46,36,46,40,34,94,80,61,30.17,29.89,10,0,10,0.06
2013-4-13,88,47,39,42,38,-13,94,73,10,30.10,29.96,24,0,24,0.11
2013-4-14,52,52,52,38,38,38,59,59,59,30.09,30.09,0,0,0,0.11
2013-4-15,55,51,42,43,39,-8,85,65,10,30.17,30.00,24,0,24,0.15
2013-4-16,66,49,36,44,39,29,94,72,37,30.39,30.17,0,0,0,0.05
2013-4-17,127,48,35,87,39,-15,96,73,10,30.50,30.39,0,0,0,0.02
2013-4-18,65,53,18,47,43,-8,89,70,48,30.48,30.33,6,0,6,0.02
2013-4-19,62,52,46,55,48,2,97,88,67,30.34,30.19,10,2,10,0.20
2013-4-20,58,50,45,48,45,41,96,84,64,30.36,30.27,24,0,24,0.24
2013-4-21,58,50,44,49,44,40,88,79,67,30.32,30.25,1,0,1,0.00
2013-4-22,74,54,40,46,36,26,94,59,20,30.40,30.31,8,0,8,0.00
2013-4-23,79,57,39,38,33,23,82,47,14,30.37,30.14,3,0,3,0.02
2013-4-24,84,66,41,41,29,17,76,30,10,30.23,30.01,2,0,2,0.19
2013-4-25,85,63,45,45,39,32,76,46,18,30.15,30.03,0,0,0,0.00
2013-4-26,88,64,46,56,42,22,86,51,11,30.25,30.15,6,0,6,0.20
2013-4-27,79,60,45,45,40,14,79,51,10,30.28,30.21,53,0,53,0.00
2013-4-28,100,58,51,52,46,28,86,67,39,30.29,30.13,97,1,97,0.20
2013-4-29,69,53,19,53,38,-28,93,63,10,30.25,30.11,24,1,24,0.08
2013-4-30,61,47,35,41,35,32,91,66,40,30.43,30.25,12,0,12,0.00
2013-5-1,77,54,-4,44,35,-20,92,55,20,30.50,30.42,5,0,5,0.00
2013-5-2,88,64,37,44,34,14,63,38,10,30.44,29.71,49,0,49,0.09
2013-5-3,89,65,47,46,39,6,69,41,10,30.30,29.74,7,0,7,0.00
2013-5-4,90,66,50,53,37,10,75,40,10,30.13,29.88,49,0,49,0.19
2013-5-5,94,69,-9,56,35,-27,75,34,10,29.90,29.68,97,3,97,0.02
2013-5-6,88,66,53,54,48,-36,78,56,26,29.92,29.78,49,2,49,0.09
2013-5-7,83,61,47,68,49,18,95,68,31,30.05,29.92,30,1,30,0.19
2013-5-8,78,57,45,55,49,-2,94,76,42,30.16,30.04,6,0,6,0.00
2013-5-9,88,65,48,58,51,36,95,65,26,30.20,30.08,6,0,6,0.00
2013-5-10,89,68,52,58,52,48,89,60,28,30.20,30.11,4,0,4,0.00
2013-5-11,92,69,54,61,54,49,86,63,27,30.21,30.02,4,0,4,0.00
2013-5-12,73,64,58,60,56,53,91,75,61,30.14,30.08,4,0,4,0.04
2013-5-13,71,59,49,56,52,45,95,79,50,30.23,30.06,11,2,11,0.00
2013-5-14,77,56,43,47,42,32,96,65,22,30.24,30.10,6,0,6,0.00
2013-5-15,60,53,47,53,46,38,89,79,65,30.12,30.02,4,0,4,0.12
2013-5-16,100,57,51,94,53,4,97,86,67,30.02,29.96,4,0,4,0.18
2013-5-17,69,58,49,52,49,44,92,74,48,30.06,30.00,5,0,5,0.01
2013-5-18,62,62,62,50,50,50,65,65,65,30.06,30.06,0,0,0,0.01
2013-5-19,73,62,50,53,50,45,86,64,45,30.40,30.06,6,0,6,0.06
2013-5-20,81,58,43,53,46,36,97,68,23,30.35,29.94,7,0,7,0.00
2013-5-21,55,47,41,50,45,40,97,92,76,30.02,29.86,6,0,6,0.54
2013-5-22,51,45,41,49,44,40,97,95,89,30.01,29.95,8,3,8,0.25
2013-5-23,57,49,44,50,47,44,98,92,73,30.03,29.99,8,2,8,0.27
2013-5-24,62,52,47,54,48,46,99,87,68,30.09,29.99,8,1,8,0.05
2013-5-25,72,62,47,52,49,44,94,64,41,30.08,29.94,0,0,0,0.17
2013-5-26,68,56,52,55,51,47,98,83,59,30.06,29.96,7,0,7,0.14
2013-5-27,68,55,50,61,52,47,98,88,70,30.00,29.76,9,1,9,0.46
2013-5-28,68,56,51,55,50,46,98,81,50,29.96,29.77,5,0,5,0.21
2013-5-29,70,56,49,53,50,45,98,82,51,30.08,29.65,1,0,1,0.22
2013-5-30,66,57,48,50,48,44,92,73,51,30.20,30.08,0,0,0,0.00
2013-5-31,62,62,62,49,49,49,64,64,64,30.19,30.19,0,0,0,0.00
2013-6-1,62,62,62,49,49,49,64,64,64,30.19,30.19,0,0,0,0.00
2013-6-2,72,61,0,55,50,48,84,65,52,30.19,29.91,0,0,0,0.01
2013-6-3,83,62,47,57,51,45,95,71,32,29.98,29.89,7,0,7,0.00
2013-6-4,90,67,48,57,50,45,91,59,26,29.95,29.84,4,0,4,0.00
2013-6-5,80,60,56,59,53,52,86,79,49,29.99,29.87,0,0,0,0.00
2013-6-6,93,70,57,62,55,48,88,63,25,30.05,29.97,5,0,5,0.00
2013-6-7,89,68,54,60,48,30,84,54,14,30.13,30.03,3,0,3,0.00
2013-6-8,88,67,50,53,47,17,91,57,10,30.15,30.03,55,2,55,0.00
2013-6-9,82,64,24,68,48,15,84,59,26,30.08,29.96,24,0,24,0.00
2013-6-10,79,58,45,52,46,42,91,66,30,30.01,29.88,8,0,8,0.00
2013-6-11,69,58,51,50,46,44,84,67,46,30.14,29.99,5,0,5,0.00
2013-6-12,66,57,50,51,48,-27,87,70,53,30.18,30.12,4,0,4,0.00
2013-6-13,96,54,49,59,50,-5,97,87,26,30.29,30.16,6,0,6,0.35
2013-6-14,78,59,46,56,50,45,99,75,39,30.29,29.97,7,0,7,0.07
2013-6-15,86,64,41,65,50,-12,96,66,10,30.02,29.90,49,2,49,0.08
2013-6-16,81,63,41,60,53,-11,96,71,10,30.11,30.01,12,0,12,0.19
2013-6-17,81,62,48,57,50,10,96,69,32,30.11,29.95,6,1,6,0.02
2013-6-18,71,59,50,60,50,-2,91,74,53,30.01,29.93,7,1,7,0.12
2013-6-19,75,58,48,55,49,-1,94,75,41,30.09,29.95,7,1,7,0.00
2013-6-20,67,57,51,57,50,48,91,80,67,30.12,30.05,5,1,5,0.17
2013-6-21,72,58,55,55,50,49,80,75,49,30.16,30.12,4,0,4,0.00
2013-6-22,88,67,50,57,49,34,95,60,17,30.09,29.85,0,0,0,0.00
2013-6-23,74,68,58,66,61,47,91,79,52,29.84,29.65,2,0,2,0.27
2013-6-24,65,59,54,59,55,53,97,88,68,29.71,29.66,4,0,4,0.07
2013-6-25,70,62,56,64,58,54,97,85,69,29.85,29.67,5,0,5,0.32
2013-6-26,75,64,58,62,59,53,99,83,63,30.03,29.84,4,0,4,0.32
2013-6-27,87,70,60,64,61,58,94,74,44,30.14,30.00,4,0,4,0.00
2013-6-28,99,73,60,69,62,55,97,71,27,30.13,30.02,0,0,0,0.00
2013-6-29,99,76,62,64,59,53,83,58,24,30.09,29.95,2,0,2,0.00
2013-6-30,109,78,-3,100,60,-7,92,60,10,29.97,29.83,4,0,4,0.00
2013-7-1,100,77,54,74,63,32,87,65,33,30.00,29.89,8,0,8,0.18
2013-7-2,109,76,63,75,62,23,89,65,10,30.06,29.99,3,0,3,0.01
2013-7-3,97,72,59,57,51,30,81,53,12,30.12,30.01,6,0,6,0.00
2013-7-4,88,67,52,56,52,48,86,62,29,30.14,30.00,4,0,4,0.00
2013-7-5,86,65,53,58,52,48,85,66,33,30.06,29.83,5,0,5,0.01
2013-7-6,88,66,51,59,54,48,92,67,33,29.86,29.74,8,0,8,0.00
2013-7-7,115,69,55,96,56,11,90,66,30,29.87,29.76,97,0,97,0.05
2013-7-8,120,69,53,61,54,19,92,64,29,29.98,29.86,24,0,24,0.00
2013-7-9,91,78,56,65,60,14,93,57,19,29.97,29.92,24,1,24,0.00
2013-7-10,97,85,58,62,57,17,69,40,10,29.94,29.81,24,1,24,0.02
2013-7-11,103,65,51,54,48,40,85,58,23,29.97,29.83,4,0,4,0.00
2013-7-12,89,65,50,53,45,-3,87,55,10,29.99,29.88,24,0,24,0.01
2013-7-13,92,67,49,52,45,28,86,52,12,30.04,29.90,8,0,8,0.00
2013-7-14,99,73,54,55,48,32,85,49,11,30.02,29.90,5,0,5,0.00
2013-7-15,95,69,53,62,48,42,75,50,20,30.01,29.80,4,0,4,0.01
2013-7-16,91,69,59,59,53,46,82,57,29,30.02,29.77,4,0,4,0.00
2013-7-17,92,68,59,60,55,52,85,65,27,30.17,30.01,4,0,4,0.00
2013-7-18,96,70,54,64,54,41,95,64,17,30.20,30.06,5,0,5,0.02
2013-7-19,95,71,54,62,56,6,90,63,10,30.14,29.99,5,0,5,0.00
2013-7-20,104,69,53,100,56,0,92,67,10,30.08,29.93,24,0,24,0.00
2013-7-21,87,64,52,68,55,49,93,75,37,29.99,29.93,5,0,5,0.08
2013-7-22,95,72,56,59,55,48,92,61,21,30.04,29.93,3,0,3,0.00
2013-7-23,102,76,57,64,57,-41,95,59,18,30.03,29.93,24,0,24,0.00
2013-7-24,104,78,60,61,53,33,85,50,10,30.03,29.95,5,0,5,0.00
2013-7-25,104,78,60,56,50,31,83,46,10,30.08,29.99,5,0,5,0.00
2013-7-26,103,76,58,56,47,32,71,42,10,30.15,30.04,4,0,4,0.00
2013-7-27,96,69,55,54,48,40,74,51,16,30.18,30.00,4,0,4,0.00
2013-7-28,88,60,51,56,50,48,91,73,28,30.06,30.03,4,0,4,0.00
2013-7-29,92,64,50,56,52,48,92,68,24,30.03,29.94,2,0,2,0.00
2013-7-30,96,69,50,61,54,48,96,65,23,30.14,30.03,4,0,4,0.00
2013-7-31,90,66,55,64,57,53,94,74,37,30.11,30.02,3,0,3,0.00
2013-8-1,69,61,57,57,55,54,94,80,64,30.12,30.06,5,0,5,0.00
2013-8-2,87,66,58,59,55,51,89,70,32,30.15,30.08,5,0,5,0.00
2013-8-3,94,71,55,63,56,47,96,66,22,30.11,29.96,3,0,3,0.00
2013-8-4,102,78,-34,74,56,-55,94,52,21,30.02,29.89,53,3,53,3.81
2013-8-5,96,83,-2,63,57,-45,90,46,10,30.01,29.95,49,2,49,0.00
2013-8-6,96,92,71,60,57,45,56,31,29,29.99,29.89,49,3,49,0.01
2013-8-7,88,69,59,60,53,-15,82,59,10,30.04,29.94,3,0,3,0.01
2013-8-8,95,70,55,63,56,14,92,66,10,30.06,29.90,61,0,61,0.02
2013-8-9,77,69,64,64,58,56,78,68,56,29.95,29.89,49,0,49,0.00
2013-8-10,109,73,58,65,59,-39,91,66,10,30.05,29.97,24,0,24,0.04
2013-8-11,89,66,56,64,57,24,94,77,39,30.08,29.99,2,0,2,0.00
2013-8-12,123,66,-3,100,56,-46,94,73,10,30.08,30.01,3,0,3,0.19
2013-8-13,97,70,51,64,52,45,90,59,19,30.10,29.92,4,0,4,0.05
2013-8-14,73,67,58,59,56,46,81,69,62,29.97,29.94,3,0,3,0.00
2013-8-15,73,73,73,59,59,59,62,62,62,29.94,29.94,0,0,0,0.00
2013-8-16,73,73,73,59,59,59,62,62,62,29.94,29.94,0,0,0,0.00
2013-8-17,73,73,73,59,59,59,62,62,62,29.94,29.94,0,0,0,0.00
2013-8-18,73,73,73,59,59,59,62,62,62,29.94,29.94,0,0,0,0.00
2013-8-19,73,71,62,59,58,54,75,63,59,30.10,29.52,1,0,1,0.08
2013-8-20,95,70,52,55,49,40,86,54,16,30.13,29.97,4,0,4,0.00
2013-8-21,97,73,55,57,53,50,85,55,22,30.00,29.84,4,0,4,0.01
2013-8-22,94,73,61,60,55,53,83,57,29,29.92,29.84,3,0,3,0.00
2013-8-23,81,70,55,61,57,53,94,68,48,29.95,29.90,3,1,3,0.00
2013-8-24,85,68,59,62,57,53,92,71,42,29.92,29.85,101,0,101,0.00
2013-8-25,77,60,4,63,54,0,94,81,10,30.67,29.90,97,1,97,0.12
2013-8-26,88,62,35,69,55,27,97,82,28,29.97,29.91,5,0,5,0.22
2013-8-27,92,68,58,69,60,3,98,79,10,29.96,29.80,97,0,97,0.07
2013-8-28,90,71,59,68,60,58,98,72,41,29.92,29.84,3,0,3,0.77
2013-8-29,84,68,63,69,63,-14,99,84,55,30.08,29.85,100,1,100,0.20
2013-8-30,94,71,61,69,60,-2,97,71,30,30.15,30.03,4,0,4,0.19
2013-8-31,100,74,55,64,57,52,97,63,22,30.04,29.82,6,0,6,0.00
2013-9-1,64,60,56,56,54,53,88,81,76,29.90,29.88,2,0,2,0.00
2013-9-2,93,65,59,61,58,31,99,82,28,29.94,29.88,11,5,11,0.81
2013-9-3,89,68,-5,69,56,-5,99,72,10,30.01,29.93,61,2,61,0.04
2013-9-4,77,67,60,59,56,54,87,71,50,30.04,29.99,2,0,2,0.00
2013-9-5,67,60,58,62,58,9,99,93,10,30.06,29.99,7,0,7,2.63
2013-9-6,72,65,59,63,60,58,99,84,66,30.14,30.05,5,1,5,0.65
2013-9-7,89,67,34,74,57,-11,99,76,10,30.10,29.95,24,1,24,0.45
2013-9-8,64,34,24,25,22,21,88,72,22,30.01,30.00,0,0,0,0.45
2013-9-9,94,72,59,65,61,15,98,73,10,30.03,29.91,3,0,3,0.00
2013-9-10,96,72,-24,76,63,-38,99,76,37,29.92,29.76,25,0,25,0.00
2013-9-11,106,76,62,66,60,53,84,61,19,29.95,29.80,4,0,4,0.00
2013-9-12,97,70,57,66,60,19,97,73,33,30.00,29.91,2,0,3,0.00
2013-9-13,89,68,55,65,60,54,98,80,42,29.97,29.83,4,0,4,0.00
2013-9-14,90,67,59,68,62,58,99,87,43,29.85,29.71,4,0,4,0.00
2013-9-15,74,62,59,63,59,51,97,89,77,29.91,29.73,4,1,4,0.00
2013-9-16,79,64,58,61,58,13,94,81,49,29.99,29.90,4,1,4,0.00
2013-9-17,82,62,55,57,52,49,95,71,38,30.03,29.87,5,1,5,0.00
2013-9-18,85,61,52,54,50,-1,97,71,26,30.08,30.00,5,0,5,0.00
2013-9-19,94,63,46,56,49,42,97,67,19,30.00,29.78,4,0,4,0.38
2013-9-20,75,60,52,62,54,50,98,83,56,29.78,29.67,5,0,5,0.00
2013-9-21,69,59,55,60,56,53,99,91,67,29.80,29.68,5,1,5,0.00
2013-9-22,62,56,54,59,55,52,99,95,75,29.88,29.70,9,3,9,0.00
2013-9-23,104,56,-2,60,53,-45,99,94,10,30.00,29.88,14,2,14,0.00
2013-9-24,62,54,-2,57,49,-45,99,86,10,29.99,29.92,24,1,24,0.00
2013-9-25,60,60,60,54,54,54,82,82,82,29.93,29.93,2,2,5,0.00
2013-9-26,60,60,60,54,54,54,82,82,82,29.93,29.93,2,2,5,0.00
2013-9-27,60,60,60,54,54,54,82,82,82,29.93,29.93,2,2,5,0.00
2013-9-28,64,58,52,59,57,52,99,97,85,29.92,29.56,17,6,17,0.00
2013-9-29,61,53,42,55,52,-2,99,97,10,29.71,29.44,11,4,11,0.00
2013-9-30,61,53,49,56,51,33,99,93,78,30.01,29.64,7,2,7,0.00
2013-10-1,72,54,48,56,50,-5,99,90,51,30.15,29.99,14,1,14,0.00
2013-10-2,58,47,42,52,46,41,99,95,76,30.19,30.07,4,1,4,0.00
2013-10-3,70,46,38,52,43,38,99,90,46,30.41,30.18,2,0,2,0.00
2013-10-4,70,49,40,52,45,40,99,88,42,30.44,30.32,4,0,4,0.00
2013-10-5,46,45,44,45,44,43,97,96,95,30.32,30.30,0,0,0,0.00
2013-10-6,79,64,42,55,50,41,99,63,36,30.13,29.98,4,1,4,0.00
2013-10-7,66,55,48,56,50,46,97,84,54,30.16,29.99,5,1,5,0.00
2013-10-8,69,51,43,54,49,40,97,92,77,30.17,29.99,4,1,4,0.00
2013-10-9,68,50,41,53,45,40,99,83,51,30.09,29.97,3,0,3,0.00
2013-10-10,50,50,50,45,45,45,80,80,80,29.97,29.97,0,0,0,0.00
2013-10-11,50,50,50,45,45,45,80,80,80,29.97,29.97,0,0,0,0.00
2013-10-12,58,50,44,51,47,43,97,88,71,30.16,30.06,1,0,1,0.00
2013-10-13,71,53,42,53,47,42,99,81,49,30.29,30.16,2,0,2,0.00
2013-10-14,72,52,40,52,45,40,99,80,41,30.35,30.26,4,0,4,0.19
2013-10-15,74,54,41,48,43,40,97,71,31,30.30,30.12,4,0,4,0.00
2013-10-16,74,53,41,51,44,40,95,75,39,30.15,30.09,24,0,24,0.51
2013-10-17,70,50,41,54,46,40,99,87,54,30.22,30.13,3,0,3,0.00
2013-10-18,77,54,42,52,44,-10,97,73,10,30.16,30.06,3,0,3,0.14
2013-10-19,53,50,48,48,44,43,92,80,78,30.15,30.08,1,0,1,0.09
2013-10-20,73,52,0,53,47,41,98,84,46,30.14,30.04,4,0,4,0.76
2013-10-21,78,54,42,55,48,42,99,82,44,30.08,29.96,4,0,4,0.00
2013-10-22,82,59,47,56,49,46,96,74,35,30.04,29.95,3,0,3,0.00
2013-10-23,83,56,44,57,50,44,99,82,37,30.00,29.93,12,0,12,0.00
2013-10-24,79,53,42,58,49,-1,99,88,42,30.08,29.98,4,0,4,0.00
2013-10-25,52,49,45,52,49,44,99,98,97,30.24,30.08,2,0,2,0.01
2013-10-26,52,50,49,51,49,48,99,97,93,30.27,30.16,0,0,0,0.01
2013-10-27,62,30,0,56,47,43,98,54,66,30.17,29.83,4,0,4,0.13
2013-10-28,0,0,0,45,45,45,0,0,100,29.85,29.85,0,0,0,0.13
2013-10-29,0,0,0,45,45,45,0,0,100,29.85,29.85,0,0,0,0.13
2013-10-30,66,14,0,45,44,34,93,17,38,30.17,29.85,3,0,3,0.13
2013-10-31,53,53,45,48,43,43,99,71,67,30.26,30.16,2,2,2,0.00
2013-11-1,67,53,45,56,50,44,99,91,60,30.27,29.91,6,0,6,0.00
2013-11-2,55,51,49,51,50,47,99,97,77,29.97,29.77,9,3,9,0.46
2013-11-3,51,46,40,46,43,-9,98,91,10,30.17,30.07,6,1,6,0.21
2013-11-4,50,47,44,48,45,43,99,96,87,30.17,27.10,8,2,8,0.11
2013-11-5,54,51,42,53,50,-3,99,98,51,30.23,30.08,11,2,11,0.06
2013-11-6,54,52,51,53,52,-3,99,98,35,30.27,30.08,49,1,49,0.35
2013-11-7,78,52,43,55,48,-4,99,90,10,30.14,29.91,30,4,30,0.57
2013-11-8,92,48,44,49,46,44,99,95,85,30.20,30.12,7,1,27,0.02
2013-11-9,48,45,43,47,44,43,99,98,90,30.10,30.03,1,0,1,0.00
2013-11-10,71,52,44,54,47,44,98,85,54,30.05,30.03,0,0,0,0.01
2013-11-11,66,47,38,52,44,38,99,91,60,30.12,30.01,24,1,24,0.00
2013-11-12,69,51,45,61,50,-3,99,97,10,30.42,30.07,3,0,3,0.25
2013-11-13,52,49,47,52,49,47,99,99,98,30.46,30.28,2,0,2,0.00
2013-11-14,54,47,42,49,46,42,99,97,79,30.29,30.09,4,0,4,0.04
2013-11-15,51,44,39,46,43,-8,99,97,88,30.10,29.60,28,2,28,0.06
2013-11-16,53,46,-28,46,43,-28,99,89,73,29.87,29.57,10,2,10,0.07
2013-11-17,53,49,45,48,45,16,98,89,79,30.01,29.87,11,3,11,0.02
2013-11-18,54,49,48,54,46,15,98,88,34,29.99,29.74,14,4,14,0.39
2013-11-19,52,48,38,52,48,-3,99,99,35,30.01,29.72,102,2,102,0.67
2013-11-20,75,40,38,40,37,-12,99,89,53,30.25,30.01,27,0,27,0.01
2013-11-21,52,32,27,26,21,-9,83,66,10,30.52,30.34,2,0,2,13.61
2013-11-22,62,38,28,25,21,18,69,51,22,30.52,30.36,2,0,2,0.00
2013-11-23,66,40,-2,27,19,-36,64,44,10,30.35,30.14,24,1,24,0.09
2013-11-24,62,39,29,31,26,20,84,62,27,30.26,30.13,49,0,49,0.00
2013-11-25,62,38,28,36,30,26,95,77,34,30.32,30.26,2,0,2,0.00
2013-11-26,53,39,22,40,34,-12,95,83,61,30.26,30.04,12,0,12,0.00
2013-11-27,60,41,25,38,34,-16,91,78,43,30.05,29.94,3,0,3,0.00
2013-11-28,65,41,33,39,33,-14,90,74,34,30.19,30.00,2,0,2,0.00
2013-11-29,47,41,31,40,37,-18,98,88,10,30.35,30.19,0,0,0,0.00
2013-11-30,42,42,42,40,40,40,92,92,92,30.33,30.33,0,0,0,0.00
2013-12-1,42,42,42,40,40,40,92,92,92,30.33,30.33,0,0,0,0.00
2013-12-2,42,42,42,40,40,40,92,92,92,30.33,30.33,0,0,0,0.00
2013-12-3,42,42,0,40,40,40,92,92,92,30.33,29.92,0,0,0,0.00
2013-12-4,54,39,34,35,30,24,93,73,35,30.01,29.95,0,0,0,0.00
2013-12-5,47,35,31,30,28,26,86,77,47,29.98,29.83,0,0,0,0.00
2013-12-6,38,36,34,34,30,25,87,81,70,29.83,29.61,0,0,0,0.00
2013-12-7,37,35,30,26,21,19,72,57,47,29.98,29.73,0,0,0,0.00
2013-12-8,37,37,37,19,19,19,47,47,47,29.98,29.98,0,0,0,0.00
2013-12-9,40,36,26,32,29,22,89,76,61,30.62,30.54,0,0,0,0.00
2013-12-10,43,37,22,35,32,-10,93,82,10,30.56,30.42,97,0,97,0.01
2013-12-11,51,34,32,40,32,30,95,92,62,30.42,30.23,13,0,13,0.00
2013-12-12,48,39,30,46,38,29,98,93,84,30.25,30.14,0,0,0,0.19
2013-12-13,58,49,44,52,47,18,99,94,77,30.48,30.25,0,0,0,0.01
2013-12-14,54,46,43,50,45,20,99,96,35,30.50,30.40,2,0,2,0.00
2013-12-15,54,48,44,49,46,44,99,94,81,30.50,30.45,0,0,0,0.12
2013-12-16,49,46,44,48,46,44,99,99,99,30.49,30.28,0,0,0,0.01
2013-12-17,44,43,42,44,42,42,99,99,99,30.27,30.20,0,0,0,0.01
2013-12-18,47,43,39,46,43,39,99,99,99,30.22,30.08,24,0,24,0.15
2013-12-19,44,39,36,43,38,36,99,98,93,30.34,30.16,0,0,0,0.00
2013-12-20,48,42,37,48,41,37,99,98,91,30.26,29.96,0,0,0,0.07
2013-12-21,58,51,48,54,50,13,99,95,82,30.28,30.00,0,0,0,0.02
2013-12-22,58,52,48,55,51,47,99,97,86,30.39,30.28,0,0,0,0.02
2013-12-23,54,51,50,54,51,49,99,99,97,30.47,30.36,0,0,0,0.06
2013-12-25,50,50,50,49,49,49,99,99,99,30.44,30.42,0,0,0,0.06
2013-12-26,50,50,50,49,49,49,99,99,99,30.42,30.31,0,0,0,0.06